Main page
METAR-TAF:

METAR-TAF

Airports :

Capitán FAP Víctor Montes Arias International Airport

Talara, Peru

latitude: 04-34S, longitude: 081-15W, elevation: 85 m

Current weather observation

The report was made 8 hours and 53 minutes ago, at 23:00 UTC
Wind 17 kt from the South
Temperature 21°C
Humidity 69%
Pressure 1010 hPa
Visibility 10 km or more
no clouds below 1500 m and no cumulonimbus

METAR: SPYL 242300Z 17017KT CAVOK 21/15 Q1010 RMK BIRD HAZARD RWY 17/35 PP000

Time: 02:53 (07:53 UTC)

Forecast

The report was made 8 hours and 33 minutes ago, at 23:20 UTC
Forecast valid from 25 at 00 UTC to 25 at 24 UTC
Wind 17 kt from the South
Visibility 10 km or more
no clouds below 1500 m and no cumulonimbus

TAF: SPYL 242320Z 2500/2524 18017KT CAVOK TX25/2519Z TN18/2511Z

Weather observations and forecasts of more than 4000 airports (METAR and TAF reports).

The available stations are represented by yellow and red dots on the map.

Hover mouse over dot to see the name of the station.

Then click to see weather observations and forecasts.

To change the map : click on the green buttons with a black cross to zoom in, on the green button with a dash to zoom out, or on the green arrows for adjacent maps.


METAR-TAF: